EGXW/WTN METAR and TAF weather

Enter ICAO airport designator
Station Type Date Time Source
EGXW METAR 2020/01/26 18:50 UTC NOAA

EGXW 261850Z AUTO 25005KT 9999 SCT021/// BKN070/// 07/06 Q1003 RERA


Station Type Date Time Source
EGXW Decoded METAR 2020/01/26 18:50 UTC NOAA

Waddington, United Kingdom (EGXW) 53-10N 000-31W 0M
Jan 26, 2020 - 01:50 PM EST / 2020.01.26 1850 UTC
Wind: from the WSW (250 degrees) at 6 MPH (5 KT):0
Visibility: greater than 7 mile(s):0
Sky conditions: mostly cloudy
Temperature: 44 F (7 C)
Dew Point: 42 F (6 C)
Relative Humidity: 93%
Pressure (altimeter): 29.62 in. Hg (1003 hPa)
ob: EGXW 261850Z AUTO 25005KT 9999 SCT021/// BKN070/// 07/06 Q1003 RERA
cycle: 19

Station Type Date Time Source
EGXW TAF 2020/01/24 15:54 UTC NOAA

TAF EGXW 241651Z 2415/2509 CNL

Example: see airport list